Time;durP1;ratioP1;P1;durP2;ratioP2;P2;SDS_P1;SDS_P2;PMS_P1;PMS_P2;Temp;Humidity;BMP_temperature;BMP_pressure;BME280_temperature;BME280_humidity;BME280_pressure;Samples;Min_cycle;Max_cycle;Signal;HPM_P1;HPM_P2
2023/01/07 00:01:10;;;;;;;3.85;3.17;;;;;;;;;;5020581;28;20045;-71
2023/01/07 00:03:36;;;;;;;2.88;2.67;;;;;;;;;;5018726;28;20045;-72
2023/01/07 00:06:22;;;;;;;3.42;3.13;;;;;;;;;;5032619;28;20037;-71
2023/01/07 00:08:51;;;;;;;3.50;2.88;;;;;;;;;;5019066;28;20099;-72
2023/01/07 00:11:19;;;;;;;4.43;3.22;;;;;;;;;;5020235;28;20033;-72
2023/01/07 00:13:45;;;;;;;4.38;2.90;;;;;;;;;;5035061;28;20053;-70
2023/01/07 00:16:13;;;;;;;3.08;2.78;;;;;;;;;;5019783;28;20107;-69
2023/01/07 00:18:39;;;;;;;3.85;3.47;;;;;;;;;;5019853;28;20045;-69
2023/01/07 00:21:07;;;;;;;4.25;3.13;;;;;;;;;;5020298;28;20045;-69
2023/01/07 00:23:34;;;;;;;3.55;3.10;;;;;;;;;;5020234;28;20043;-69
2023/01/07 00:26:11;;;;;;;3.45;3.15;;;;;;;;;;5034956;28;20421;-71
2023/01/07 00:28:39;;;;;;;4.30;3.05;;;;;;;;;;5019502;28;20103;-72
2023/01/07 00:31:07;;;;;;;3.40;3.10;;;;;;;;;;5019132;28;20132;-72
2023/01/07 00:33:40;;;;;;;3.90;3.50;;;;;;;;;;5019580;28;20053;-69
2023/01/07 00:36:08;;;;;;;4.53;3.33;;;;;;;;;;5018632;28;20053;-72
2023/01/07 00:38:34;;;;;;;4.68;3.70;;;;;;;;;;5019537;28;20395;-71
2023/01/07 00:41:00;;;;;;;3.95;3.53;;;;;;;;;;5018866;28;20041;-69
2023/01/07 00:43:26;;;;;;;3.95;3.55;;;;;;;;;;5035167;28;20528;-70
2023/01/07 00:45:51;;;;;;;3.53;3.15;;;;;;;;;;5035586;28;20091;-70
2023/01/07 00:48:17;;;;;;;3.90;3.40;;;;;;;;;;5019573;28;20437;-70
2023/01/07 00:50:44;;;;;;;4.50;3.95;;;;;;;;;;5034442;28;20056;-72
2023/01/07 00:53:11;;;;;;;4.25;3.85;;;;;;;;;;5019399;28;20049;-70
2023/01/07 00:55:36;;;;;;;5.00;3.78;;;;;;;;;;5019324;28;20045;-71
2023/01/07 00:58:02;;;;;;;3.97;3.58;;;;;;;;;;5035521;28;20156;-73
2023/01/07 01:00:27;;;;;;;3.55;3.25;;;;;;;;;;5017448;28;20055;-70
2023/01/07 01:02:54;;;;;;;5.28;3.50;;;;;;;;;;5034742;28;20053;-70
2023/01/07 01:05:20;;;;;;;5.45;3.60;;;;;;;;;;5035175;28;20844;-72
2023/01/07 01:07:46;;;;;;;5.03;4.18;;;;;;;;;;5035245;28;20413;-70
2023/01/07 01:10:15;;;;;;;5.43;4.25;;;;;;;;;;5019129;28;20076;-71
2023/01/07 01:12:40;;;;;;;4.40;3.97;;;;;;;;;;5018366;28;20048;-73
2023/01/07 01:15:10;;;;;;;4.78;3.35;;;;;;;;;;5017159;28;20053;-70
2023/01/07 01:17:36;;;;;;;3.80;3.33;;;;;;;;;;5011410;28;20053;-70
2023/01/07 01:20:02;;;;;;;4.38;3.25;;;;;;;;;;5033581;28;20051;-73
2023/01/07 01:22:27;;;;;;;4.25;3.00;;;;;;;;;;5015431;28;20057;-70
2023/01/07 01:24:53;;;;;;;4.65;3.33;;;;;;;;;;5033037;28;20041;-70
2023/01/07 01:27:19;;;;;;;3.88;3.38;;;;;;;;;;5017776;28;20041;-70
2023/01/07 01:29:44;;;;;;;3.85;3.10;;;;;;;;;;5019899;28;20088;-72
2023/01/07 01:32:11;;;;;;;3.53;3.03;;;;;;;;;;5033897;28;21132;-72
2023/01/07 01:34:38;;;;;;;3.47;3.17;;;;;;;;;;5018030;28;20095;-70
2023/01/07 01:37:03;;;;;;;3.22;2.92;;;;;;;;;;5034478;28;20049;-72
2023/01/07 01:39:29;;;;;;;4.18;3.60;;;;;;;;;;5020259;28;20045;-70
2023/01/07 01:41:55;;;;;;;3.38;3.05;;;;;;;;;;5022351;28;20048;-70
2023/01/07 01:44:47;;;;;;;3.80;3.40;;;;;;;;;;5023482;28;20057;-71
2023/01/07 01:47:37;;;;;;;3.60;3.05;;;;;;;;;;5017980;28;20041;-72
2023/01/07 01:50:24;;;;;;;4.82;3.22;;;;;;;;;;5039250;28;20042;-70
2023/01/07 01:53:33;;;;;;;3.92;3.53;;;;;;;;;;5037059;28;20069;-72
2023/01/07 01:56:13;;;;;;;3.65;3.35;;;;;;;;;;5021351;28;20052;-69
2023/01/07 01:58:43;;;;;;;5.22;3.90;;;;;;;;;;5020459;28;20056;-69
2023/01/07 02:01:11;;;;;;;4.57;3.03;;;;;;;;;;5038633;28;20406;-72
2023/01/07 02:03:37;;;;;;;3.42;3.13;;;;;;;;;;5023279;28;20081;-71
2023/01/07 02:06:04;;;;;;;4.80;3.00;;;;;;;;;;5039113;28;20045;-69
2023/01/07 02:08:29;;;;;;;4.63;3.65;;;;;;;;;;5038227;28;20102;-71
2023/01/07 02:11:13;;;;;;;4.90;3.50;;;;;;;;;;5036906;28;20203;-69
2023/01/07 02:13:55;;;;;;;5.30;3.80;;;;;;;;;;5036741;28;20080;-71
2023/01/07 02:16:40;;;;;;;4.68;3.75;;;;;;;;;;5037251;28;20041;-69
2023/01/07 02:19:17;;;;;;;4.60;3.97;;;;;;;;;;5018758;28;20041;-71
2023/01/07 02:21:47;;;;;;;3.45;3.15;;;;;;;;;;5035080;28;20064;-73
2023/01/07 02:24:50;;;;;;;4.00;3.50;;;;;;;;;;5022265;28;20120;-71
2023/01/07 02:27:48;;;;;;;3.78;2.85;;;;;;;;;;5036595;28;20041;-71
2023/01/07 02:30:25;;;;;;;3.40;2.58;;;;;;;;;;5018934;28;20069;-69
2023/01/07 02:33:14;;;;;;;3.05;2.85;;;;;;;;;;5015672;28;20115;-70
2023/01/07 02:36:00;;;;;;;4.88;3.30;;;;;;;;;;5018196;28;20864;-70
2023/01/07 02:38:48;;;;;;;4.70;3.10;;;;;;;;;;5035922;28;20139;-71
2023/01/07 02:41:39;;;;;;;6.53;3.03;;;;;;;;;;5020796;28;20053;-71
2023/01/07 02:44:23;;;;;;;3.35;3.05;;;;;;;;;;5035484;28;20061;-70
2023/01/07 02:47:04;;;;;;;3.40;2.83;;;;;;;;;;5015307;28;20053;-70
2023/01/07 02:49:29;;;;;;;6.30;3.10;;;;;;;;;;5020246;28;20053;-70
2023/01/07 02:52:15;;;;;;;4.13;3.15;;;;;;;;;;5035042;28;20049;-71
2023/01/07 02:54:41;;;;;;;4.03;3.28;;;;;;;;;;5018784;28;20090;-73
2023/01/07 02:57:35;;;;;;;4.68;2.88;;;;;;;;;;5035928;28;20465;-70
2023/01/07 03:00:38;;;;;;;2.83;2.15;;;;;;;;;;5036139;28;20387;-71
2023/01/07 03:03:20;;;;;;;2.78;2.38;;;;;;;;;;5040142;28;20072;-71
2023/01/07 03:06:04;;;;;;;3.08;2.78;;;;;;;;;;5036277;28;20560;-72
2023/01/07 03:09:10;;;;;;;4.18;3.03;;;;;;;;;;5021317;28;20073;-72
2023/01/07 03:11:59;;;;;;;3.33;2.90;;;;;;;;;;5017370;28;20160;-73
2023/01/07 03:15:03;;;;;;;5.53;2.70;;;;;;;;;;5019421;28;20119;-70
2023/01/07 03:17:40;;;;;;;3.33;2.70;;;;;;;;;;5015424;28;20045;-71
2023/01/07 03:20:06;;;;;;;3.28;2.58;;;;;;;;;;5036592;28;20475;-70
2023/01/07 03:22:35;;;;;;;2.95;2.53;;;;;;;;;;5020272;28;20120;-71
2023/01/07 03:25:01;;;;;;;4.00;2.60;;;;;;;;;;5019791;28;20045;-73
2023/01/07 03:27:31;;;;;;;3.30;2.53;;;;;;;;;;5035957;28;20060;-70
2023/01/07 03:29:59;;;;;;;3.00;2.28;;;;;;;;;;5020138;28;20390;-73
2023/01/07 03:32:30;;;;;;;3.50;2.42;;;;;;;;;;5034502;28;20057;-72
2023/01/07 03:34:56;;;;;;;3.17;2.88;;;;;;;;;;5021241;28;20049;-70
2023/01/07 03:37:25;;;;;;;4.00;2.90;;;;;;;;;;5020554;28;20045;-72
2023/01/07 03:39:51;;;;;;;5.63;2.95;;;;;;;;;;5035944;28;20076;-71
2023/01/07 03:42:40;;;;;;;2.97;2.63;;;;;;;;;;5020798;28;20049;-71
2023/01/07 03:45:14;;;;;;;3.40;2.58;;;;;;;;;;5032425;28;20053;-72
2023/01/07 03:47:43;;;;;;;3.63;2.97;;;;;;;;;;5019591;28;20053;-71
2023/01/07 03:50:09;;;;;;;3.60;2.80;;;;;;;;;;5034895;28;20401;-71
2023/01/07 03:52:38;;;;;;;3.63;2.90;;;;;;;;;;5034386;28;20560;-70
2023/01/07 03:55:05;;;;;;;3.33;2.60;;;;;;;;;;5035740;28;20049;-70
2023/01/07 03:57:32;;;;;;;3.00;2.70;;;;;;;;;;5036007;28;20037;-71
2023/01/07 03:59:59;;;;;;;3.83;2.70;;;;;;;;;;5018443;28;20041;-71
2023/01/07 04:02:25;;;;;;;3.58;2.45;;;;;;;;;;5034270;28;20046;-71
2023/01/07 04:04:51;;;;;;;2.83;2.55;;;;;;;;;;5019187;28;20505;-72
2023/01/07 04:07:17;;;;;;;2.97;2.67;;;;;;;;;;5036429;28;20053;-70
2023/01/07 04:09:45;;;;;;;2.90;2.40;;;;;;;;;;5019091;28;20065;-71
2023/01/07 04:12:13;;;;;;;3.00;2.60;;;;;;;;;;5017019;28;20936;-71
2023/01/07 04:14:39;;;;;;;3.63;2.60;;;;;;;;;;5035388;28;20051;-70
2023/01/07 04:17:04;;;;;;;3.83;2.90;;;;;;;;;;5020388;28;20108;-70
2023/01/07 04:19:30;;;;;;;5.07;3.10;;;;;;;;;;5036256;28;20397;-72
2023/01/07 04:21:57;;;;;;;2.88;2.58;;;;;;;;;;5033784;28;20875;-72
2023/01/07 04:24:22;;;;;;;4.28;2.63;;;;;;;;;;5020674;28;20048;-70
2023/01/07 04:26:48;;;;;;;3.90;2.70;;;;;;;;;;5035223;28;20053;-71
2023/01/07 04:29:13;;;;;;;2.80;2.50;;;;;;;;;;5035863;28;20044;-71
2023/01/07 04:31:39;;;;;;;3.70;2.83;;;;;;;;;;5035213;28;20103;-70
2023/01/07 04:34:05;;;;;;;3.42;2.92;;;;;;;;;;5019019;28;20052;-71
2023/01/07 04:36:30;;;;;;;3.95;3.10;;;;;;;;;;5018793;28;20394;-70
2023/01/07 04:38:56;;;;;;;3.85;3.35;;;;;;;;;;5035395;28;20115;-69
2023/01/07 04:41:21;;;;;;;2.92;2.60;;;;;;;;;;5035774;28;20124;-67
2023/01/07 04:43:47;;;;;;;3.70;2.88;;;;;;;;;;5015602;28;20899;-68
2023/01/07 04:46:12;;;;;;;4.05;3.10;;;;;;;;;;5035483;28;20041;-67
2023/01/07 04:48:38;;;;;;;3.08;2.78;;;;;;;;;;5032697;28;20088;-67
2023/01/07 04:51:05;;;;;;;3.20;2.90;;;;;;;;;;5034804;28;20048;-67
2023/01/07 04:53:31;;;;;;;3.60;2.67;;;;;;;;;;5015419;28;20037;-69
2023/01/07 04:55:58;;;;;;;4.78;3.35;;;;;;;;;;5034444;28;20132;-69
2023/01/07 04:58:24;;;;;;;5.28;3.17;;;;;;;;;;5016964;28;20041;-68
2023/01/07 05:00:52;;;;;;;3.28;2.90;;;;;;;;;;5034457;28;20056;-68
2023/01/07 05:03:18;;;;;;;4.07;3.30;;;;;;;;;;5034095;28;20080;-70
2023/01/07 05:05:45;;;;;;;4.15;3.22;;;;;;;;;;5034975;28;20498;-69
2023/01/07 05:08:10;;;;;;;4.90;3.15;;;;;;;;;;5035325;28;20053;-68
2023/01/07 05:10:36;;;;;;;4.35;3.20;;;;;;;;;;5034757;28;20045;-70
2023/01/07 05:13:04;;;;;;;4.80;3.15;;;;;;;;;;5034266;28;20151;-69
2023/01/07 05:15:31;;;;;;;4.45;3.25;;;;;;;;;;5036960;28;20045;-69
2023/01/07 05:17:58;;;;;;;3.47;3.17;;;;;;;;;;5021652;28;20426;-69
2023/01/07 05:20:24;;;;;;;3.33;2.85;;;;;;;;;;5022236;28;20041;-69
2023/01/07 05:22:50;;;;;;;3.30;3.00;;;;;;;;;;5037700;28;20149;-69
2023/01/07 05:25:17;;;;;;;5.00;3.70;;;;;;;;;;5039128;28;20045;-66
2023/01/07 05:27:42;;;;;;;5.10;3.72;;;;;;;;;;5022565;28;20076;-67
2023/01/07 05:30:09;;;;;;;4.50;3.53;;;;;;;;;;5022366;28;20046;-67
2023/01/07 05:32:35;;;;;;;5.53;4.00;;;;;;;;;;5036927;28;20052;-67
2023/01/07 05:35:00;;;;;;;4.55;3.55;;;;;;;;;;5038743;28;20048;-66
2023/01/07 05:37:26;;;;;;;4.30;3.90;;;;;;;;;;5038621;28;20578;-66
2023/01/07 05:39:52;;;;;;;6.35;4.25;;;;;;;;;;5022340;28;20049;-68
2023/01/07 05:42:19;;;;;;;6.13;4.63;;;;;;;;;;5021718;28;20087;-68
2023/01/07 05:44:45;;;;;;;4.57;3.90;;;;;;;;;;5037849;28;20053;-68
2023/01/07 05:47:11;;;;;;;4.90;4.30;;;;;;;;;;5023372;28;20429;-68
2023/01/07 05:49:36;;;;;;;5.70;4.65;;;;;;;;;;5022421;28;20155;-68
2023/01/07 05:52:02;;;;;;;7.85;4.40;;;;;;;;;;5022347;28;20148;-67
2023/01/07 05:54:27;;;;;;;4.95;4.03;;;;;;;;;;5021896;28;20147;-68
2023/01/07 05:56:52;;;;;;;5.80;4.28;;;;;;;;;;5023265;28;20061;-67
2023/01/07 05:59:18;;;;;;;6.70;5.30;;;;;;;;;;5022947;28;20045;-68
2023/01/07 06:01:43;;;;;;;7.72;5.45;;;;;;;;;;5022293;28;20080;-68
2023/01/07 06:04:09;;;;;;;6.50;4.63;;;;;;;;;;5022540;28;20148;-67
2023/01/07 06:06:34;;;;;;;7.38;4.78;;;;;;;;;;5022675;28;20041;-68
2023/01/07 06:08:59;;;;;;;9.38;5.20;;;;;;;;;;5023012;28;20041;-68
2023/01/07 06:11:25;;;;;;;4.90;4.40;;;;;;;;;;5037262;28;20563;-68
2023/01/07 06:13:50;;;;;;;5.63;4.60;;;;;;;;;;5021793;28;20049;-67
2023/01/07 06:16:15;;;;;;;5.43;4.63;;;;;;;;;;5023133;28;20053;-68
2023/01/07 06:18:41;;;;;;;7.70;4.93;;;;;;;;;;5022499;28;20115;-69
2023/01/07 06:21:06;;;;;;;5.05;4.30;;;;;;;;;;5022638;28;20046;-68
2023/01/07 06:23:32;;;;;;;6.22;4.18;;;;;;;;;;5021052;28;20064;-67
2023/01/07 06:26:02;;;;;;;4.65;3.47;;;;;;;;;;5022151;28;20049;-68
2023/01/07 06:28:27;;;;;;;3.85;3.42;;;;;;;;;;5022144;28;20041;-67
2023/01/07 06:30:53;;;;;;;6.38;3.88;;;;;;;;;;5022637;28;20414;-68
2023/01/07 06:33:18;;;;;;;4.40;3.80;;;;;;;;;;5020973;28;20065;-69
2023/01/07 06:35:45;;;;;;;4.45;3.53;;;;;;;;;;5022311;28;20067;-68
2023/01/07 06:38:10;;;;;;;4.75;3.72;;;;;;;;;;5022422;28;20115;-67
2023/01/07 06:40:35;;;;;;;5.65;3.60;;;;;;;;;;5022045;28;20489;-70
2023/01/07 06:43:01;;;;;;;5.47;4.15;;;;;;;;;;5021477;28;20053;-69
2023/01/07 06:45:27;;;;;;;5.25;3.65;;;;;;;;;;5021675;28;20056;-69
2023/01/07 06:47:52;;;;;;;4.68;3.95;;;;;;;;;;5022113;28;20044;-69
2023/01/07 06:50:18;;;;;;;4.53;3.40;;;;;;;;;;5021876;28;20555;-68
2023/01/07 06:52:43;;;;;;;4.45;3.25;;;;;;;;;;5020413;28;20045;-69
2023/01/07 06:55:09;;;;;;;3.70;3.17;;;;;;;;;;5021068;28;20041;-67
2023/01/07 06:57:35;;;;;;;4.03;3.58;;;;;;;;;;5021784;28;20041;-67
2023/01/07 07:00:01;;;;;;;5.15;3.38;;;;;;;;;;5022050;28;20379;-70
2023/01/07 07:02:27;;;;;;;14.55;3.53;;;;;;;;;;5036053;28;20099;-71
2023/01/07 07:04:53;;;;;;;4.53;3.50;;;;;;;;;;5021824;28;20502;-71
2023/01/07 07:07:19;;;;;;;3.63;3.00;;;;;;;;;;5021479;28;20049;-69
2023/01/07 07:09:45;;;;;;;6.97;3.47;;;;;;;;;;5019812;28;20055;-70
2023/01/07 07:12:10;;;;;;;3.47;2.97;;;;;;;;;;5021211;28;20041;-69
2023/01/07 07:14:36;;;;;;;3.20;2.90;;;;;;;;;;5020850;28;20041;-70
2023/01/07 07:17:02;;;;;;;3.40;3.10;;;;;;;;;;5037691;28;20413;-70
2023/01/07 07:19:28;;;;;;;5.10;3.47;;;;;;;;;;5019033;28;20069;-70
2023/01/07 07:21:53;;;;;;;5.07;3.35;;;;;;;;;;5021519;28;20478;-72
2023/01/07 07:24:18;;;;;;;4.57;3.40;;;;;;;;;;5020775;28;20927;-70
2023/01/07 07:26:44;;;;;;;5.00;3.70;;;;;;;;;;5035601;28;21028;-70
2023/01/07 07:29:10;;;;;;;4.28;3.55;;;;;;;;;;5020444;28;20041;-70
2023/01/07 07:31:36;;;;;;;4.30;3.60;;;;;;;;;;5020596;28;20048;-70
2023/01/07 07:34:01;;;;;;;6.28;3.65;;;;;;;;;;5020478;28;20144;-70
2023/01/07 07:36:27;;;;;;;5.60;3.80;;;;;;;;;;5020619;28;20048;-71
2023/01/07 07:38:52;;;;;;;4.38;3.45;;;;;;;;;;5020227;28;20045;-70
2023/01/07 07:41:18;;;;;;;3.65;3.33;;;;;;;;;;5035421;28;20076;-70
2023/01/07 07:43:43;;;;;;;5.65;4.00;;;;;;;;;;5020492;28;20045;-70
2023/01/07 07:46:08;;;;;;;4.18;3.70;;;;;;;;;;5020854;28;20076;-70
2023/01/07 07:48:34;;;;;;;4.97;3.90;;;;;;;;;;5020385;28;20128;-69
2023/01/07 07:50:59;;;;;;;16.42;4.57;;;;;;;;;;5019863;28;20037;-71
2023/01/07 07:53:25;;;;;;;5.18;3.50;;;;;;;;;;5020136;28;20498;-70
2023/01/07 07:55:52;;;;;;;5.97;3.70;;;;;;;;;;5021004;28;20084;-69
2023/01/07 07:58:18;;;;;;;4.65;3.53;;;;;;;;;;5019356;28;20049;-71
2023/01/07 08:00:43;;;;;;;3.95;3.30;;;;;;;;;;5019835;28;20498;-71
2023/01/07 08:03:10;;;;;;;5.25;3.85;;;;;;;;;;5018998;28;20091;-70
2023/01/07 08:05:40;;;;;;;5.85;3.88;;;;;;;;;;5036231;28;20715;-70
2023/01/07 08:08:07;;;;;;;4.13;3.40;;;;;;;;;;5020751;28;20079;-70
2023/01/07 08:10:32;;;;;;;3.80;3.22;;;;;;;;;;5019947;28;20041;-71
2023/01/07 08:12:58;;;;;;;5.35;3.58;;;;;;;;;;5018884;28;20045;-70
2023/01/07 08:15:23;;;;;;;5.10;3.03;;;;;;;;;;5020326;28;20045;-72
2023/01/07 08:18:03;;;;;;;5.43;3.33;;;;;;;;;;5020186;28;20548;-71
2023/01/07 08:20:29;;;;;;;3.53;2.70;;;;;;;;;;5019738;28;20056;-71
2023/01/07 08:23:00;;;;;;;3.17;2.67;;;;;;;;;;5019579;28;20049;-72
2023/01/07 08:25:27;;;;;;;3.40;2.90;;;;;;;;;;5027076;28;20037;-71
2023/01/07 08:27:59;;;;;;;3.88;2.58;;;;;;;;;;5018881;28;20049;-72
2023/01/07 08:30:26;;;;;;;4.65;2.92;;;;;;;;;;5019992;28;20103;-71
2023/01/07 08:32:51;;;;;;;3.63;2.67;;;;;;;;;;5033643;28;20145;-71
2023/01/07 08:35:17;;;;;;;4.63;2.35;;;;;;;;;;5018421;28;20132;-71
2023/01/07 08:37:43;;;;;;;4.47;2.70;;;;;;;;;;5018873;28;20045;-71
2023/01/07 08:40:09;;;;;;;6.80;2.47;;;;;;;;;;5019224;28;20038;-70
2023/01/07 08:42:35;;;;;;;2.97;2.60;;;;;;;;;;5016242;28;20045;-72
2023/01/07 08:45:00;;;;;;;4.45;2.40;;;;;;;;;;5018608;28;20037;-70
2023/01/07 08:47:29;;;;;;;2.63;2.40;;;;;;;;;;5015748;28;20508;-72
2023/01/07 08:49:55;;;;;;;5.63;2.70;;;;;;;;;;5035197;28;20034;-72
2023/01/07 08:52:21;;;;;;;3.92;2.20;;;;;;;;;;5020684;28;20521;-72
2023/01/07 08:54:47;;;;;;;3.17;2.53;;;;;;;;;;5020391;28;20057;-71
2023/01/07 08:57:13;;;;;;;2.88;2.20;;;;;;;;;;5020965;28;20048;-70
2023/01/07 08:59:39;;;;;;;3.85;2.63;;;;;;;;;;5017985;28;20038;-70
2023/01/07 09:02:18;;;;;;;2.67;2.30;;;;;;;;;;5020388;28;20041;-70
2023/01/07 09:04:44;;;;;;;3.20;2.50;;;;;;;;;;5019987;28;20060;-70
2023/01/07 09:07:10;;;;;;;3.65;2.50;;;;;;;;;;5020488;28;20041;-73
2023/01/07 09:09:38;;;;;;;2.83;2.33;;;;;;;;;;5036268;28;20455;-71
2023/01/07 09:12:05;;;;;;;2.38;2.17;;;;;;;;;;5021042;28;20072;-70
2023/01/07 09:14:31;;;;;;;3.90;2.70;;;;;;;;;;5019390;28;20506;-72
2023/01/07 09:16:56;;;;;;;3.38;2.35;;;;;;;;;;5018440;28;20136;-72
2023/01/07 09:19:22;;;;;;;4.55;2.50;;;;;;;;;;5019520;28;20045;-71
2023/01/07 09:21:50;;;;;;;2.78;2.58;;;;;;;;;;5017676;28;20029;-72
2023/01/07 09:24:15;;;;;;;4.72;2.85;;;;;;;;;;5018898;28;20045;-73
2023/01/07 09:26:42;;;;;;;4.13;2.88;;;;;;;;;;5034204;28;20085;-71
2023/01/07 09:29:08;;;;;;;8.43;2.90;;;;;;;;;;5019099;28;20053;-72
2023/01/07 09:31:33;;;;;;;3.58;2.92;;;;;;;;;;5020020;28;20049;-71
2023/01/07 09:33:58;;;;;;;5.60;3.22;;;;;;;;;;5020133;28;20054;-72
2023/01/07 09:36:25;;;;;;;4.32;2.97;;;;;;;;;;5022006;28;20095;-73
2023/01/07 09:38:51;;;;;;;4.82;3.47;;;;;;;;;;5020186;28;20057;-71
2023/01/07 09:41:39;;;;;;;4.43;3.25;;;;;;;;;;5020861;28;20045;-71
2023/01/07 09:44:14;;;;;;;5.60;3.35;;;;;;;;;;5019406;28;20057;-73
2023/01/07 09:46:41;;;;;;;4.50;3.10;;;;;;;;;;5018960;28;21149;-72
2023/01/07 09:49:17;;;;;;;3.70;3.15;;;;;;;;;;5019910;28;20089;-71
2023/01/07 09:51:47;;;;;;;9.98;3.15;;;;;;;;;;5034777;28;20111;-71
2023/01/07 09:54:27;;;;;;;4.82;3.03;;;;;;;;;;5020039;28;20605;-71
2023/01/07 09:56:53;;;;;;;5.50;3.03;;;;;;;;;;5019880;28;20064;-72
2023/01/07 09:59:18;;;;;;;3.90;3.00;;;;;;;;;;5020589;28;20071;-72
2023/01/07 10:02:06;;;;;;;4.40;2.90;;;;;;;;;;5018983;28;20063;-73
2023/01/07 10:04:43;;;;;;;3.17;2.90;;;;;;;;;;5018891;28;20045;-73
2023/01/07 10:07:09;;;;;;;3.40;3.10;;;;;;;;;;5034288;28;20049;-71
2023/01/07 10:09:59;;;;;;;3.60;3.05;;;;;;;;;;5019850;28;20049;-72
2023/01/07 10:12:29;;;;;;;4.60;3.17;;;;;;;;;;5018669;28;20049;-71
2023/01/07 10:15:00;;;;;;;3.58;2.65;;;;;;;;;;5017669;28;20095;-72
2023/01/07 10:17:57;;;;;;;3.30;2.65;;;;;;;;;;5018784;28;20041;-72
2023/01/07 10:20:22;;;;;;;2.42;2.22;;;;;;;;;;5018249;28;20120;-72
2023/01/07 10:22:56;;;;;;;5.05;2.50;;;;;;;;;;5017489;28;20775;-72
2023/01/07 10:25:32;;;;;;;2.75;2.38;;;;;;;;;;5018312;28;20045;-72
2023/01/07 10:28:04;;;;;;;3.85;2.50;;;;;;;;;;5020830;28;20064;-71
2023/01/07 10:30:33;;;;;;;3.15;2.45;;;;;;;;;;5018846;28;20046;-70
2023/01/07 10:33:16;;;;;;;3.60;2.40;;;;;;;;;;5019796;28;20502;-70
2023/01/07 10:35:41;;;;;;;2.42;2.22;;;;;;;;;;5018384;28;20460;-70
2023/01/07 10:38:16;;;;;;;2.55;2.13;;;;;;;;;;5020677;28;20094;-70
2023/01/07 10:40:58;;;;;;;2.58;2.20;;;;;;;;;;5019527;28;20399;-70
2023/01/07 10:43:42;;;;;;;;;;;;;;;;;;5021041;28;20044;-70
2023/01/07 10:46:20;;;;;;;3.30;1.92;;;;;;;;;;5019530;28;20946;-70
2023/01/07 10:49:01;;;;;;;2.05;1.88;;;;;;;;;;5019368;28;20045;-71
2023/01/07 10:51:35;;;;;;;2.40;2.20;;;;;;;;;;5020247;28;20056;-70
2023/01/07 10:54:15;;;;;;;4.30;2.10;;;;;;;;;;5017264;28;20041;-69
2023/01/07 10:56:49;;;;;;;1.90;1.80;;;;;;;;;;5019891;28;20637;-71
2023/01/07 10:59:18;;;;;;;2.45;2.25;;;;;;;;;;5019222;28;20046;-70
2023/01/07 11:01:55;;;;;;;1.83;1.73;;;;;;;;;;5020506;28;20055;-70
2023/01/07 11:04:21;;;;;;;2.08;1.88;;;;;;;;;;5035324;28;20041;-70
2023/01/07 11:06:57;;;;;;;2.35;2.13;;;;;;;;;;5020130;28;20071;-71
2023/01/07 11:09:28;;;;;;;2.65;2.00;;;;;;;;;;5019944;28;20049;-70
2023/01/07 11:11:56;;;;;;;2.78;2.08;;;;;;;;;;5019348;28;20080;-72
2023/01/07 11:14:26;;;;;;;2.33;2.13;;;;;;;;;;5018939;28;20056;-69
2023/01/07 11:17:00;;;;;;;2.08;1.90;;;;;;;;;;5018209;28;20461;-70
2023/01/07 11:19:51;;;;;;;2.63;2.30;;;;;;;;;;5018183;28;20053;-69
2023/01/07 11:22:27;;;;;;;2.00;1.90;;;;;;;;;;5018222;28;20052;-71
2023/01/07 11:24:55;;;;;;;2.65;2.20;;;;;;;;;;5033260;28;20061;-71
2023/01/07 11:27:23;;;;;;;2.10;2.00;;;;;;;;;;5019944;28;20049;-71
2023/01/07 11:30:15;;;;;;;2.75;1.98;;;;;;;;;;5020085;28;20053;-70
2023/01/07 11:32:43;;;;;;;2.17;1.98;;;;;;;;;;5024440;28;20554;-71
2023/01/07 11:35:18;;;;;;;2.40;2.20;;;;;;;;;;5019209;28;20079;-71
2023/01/07 11:37:46;;;;;;;2.10;1.90;;;;;;;;;;5020263;28;20080;-71
2023/01/07 11:40:12;;;;;;;2.75;2.40;;;;;;;;;;5020463;28;20136;-72
2023/01/07 11:42:55;;;;;;;2.40;2.20;;;;;;;;;;5018967;28;20045;-70
2023/01/07 11:45:34;;;;;;;2.58;2.15;;;;;;;;;;5020182;28;20037;-70
2023/01/07 11:48:09;;;;;;;2.25;2.05;;;;;;;;;;5020187;28;20449;-71
2023/01/07 11:50:36;;;;;;;2.08;1.98;;;;;;;;;;5019609;28;20085;-71
2023/01/07 11:53:13;;;;;;;2.45;2.20;;;;;;;;;;5016021;28;20060;-71
2023/01/07 11:55:54;;;;;;;2.85;1.92;;;;;;;;;;5020226;28;20757;-72
2023/01/07 11:58:20;;;;;;;2.30;2.10;;;;;;;;;;5019242;28;20063;-71
2023/01/07 12:00:57;;;;;;;2.22;2.03;;;;;;;;;;5033314;28;20040;-70
2023/01/07 12:03:23;;;;;;;2.47;2.28;;;;;;;;;;5017445;28;20041;-70
2023/01/07 12:05:56;;;;;;;2.10;1.90;;;;;;;;;;5019107;28;20041;-70
2023/01/07 12:08:22;;;;;;;3.00;2.60;;;;;;;;;;5018915;28;20609;-70
2023/01/07 12:11:02;;;;;;;2.58;2.38;;;;;;;;;;5018211;28;20056;-71
2023/01/07 12:13:27;;;;;;;2.90;2.45;;;;;;;;;;5018222;28;20049;-72
2023/01/07 12:15:58;;;;;;;2.45;2.25;;;;;;;;;;5017222;28;20190;-71
2023/01/07 12:18:39;;;;;;;3.30;2.40;;;;;;;;;;5018759;28;20160;-70
2023/01/07 12:21:36;;;;;;;3.03;2.38;;;;;;;;;;5017785;28;20054;-71
2023/01/07 12:24:07;;;;;;;3.55;2.38;;;;;;;;;;5016174;28;20140;-70
2023/01/07 12:26:50;;;;;;;2.45;2.25;;;;;;;;;;5015666;28;20187;-72
2023/01/07 12:29:38;;;;;;;3.13;2.83;;;;;;;;;;5032793;28;20060;-70
2023/01/07 12:32:09;;;;;;;2.90;2.60;;;;;;;;;;5016148;28;20763;-71
2023/01/07 12:35:14;;;;;;;2.92;2.60;;;;;;;;;;5015780;28;20133;-70
2023/01/07 12:37:47;;;;;;;4.43;2.38;;;;;;;;;;4989750;28;21135;-71
2023/01/07 12:40:12;;;;;;;2.60;2.40;;;;;;;;;;5014981;28;20498;-70
2023/01/07 12:42:43;;;;;;;2.70;2.30;;;;;;;;;;5018899;28;20087;-70
2023/01/07 12:45:21;;;;;;;2.75;2.55;;;;;;;;;;5019761;28;20041;-71
2023/01/07 12:47:52;;;;;;;2.97;2.67;;;;;;;;;;5018995;28;20068;-70
2023/01/07 12:50:27;;;;;;;2.58;2.35;;;;;;;;;;5020258;28;20050;-71
2023/01/07 12:53:02;;;;;;;3.28;2.67;;;;;;;;;;5018067;28;20132;-72
2023/01/07 12:55:34;;;;;;;4.88;2.50;;;;;;;;;;5018839;28;20180;-72
2023/01/07 12:58:20;;;;;;;2.47;2.28;;;;;;;;;;5015589;28;20069;-74
2023/01/07 13:00:53;;;;;;;4.68;2.55;;;;;;;;;;5017922;28;20054;-73
2023/01/07 13:03:21;;;;;;;3.72;2.53;;;;;;;;;;5033779;28;20041;-73
2023/01/07 13:05:55;;;;;;;2.53;2.30;;;;;;;;;;5022047;28;20057;-74
2023/01/07 13:08:45;;;;;;;2.75;2.50;;;;;;;;;;5012027;28;20829;-75
2023/01/07 13:15:56;;;;;;;3.42;2.63;;;;;;;;;;4955699;28;20182;-73
2023/01/07 13:18:28;;;;;;;2.45;2.25;;;;;;;;;;4905231;28;20046;-73
2023/01/07 13:21:06;;;;;;;2.50;2.30;;;;;;;;;;4884623;29;20052;-73
2023/01/07 13:23:58;;;;;;;3.42;2.30;;;;;;;;;;4903506;29;20425;-73
2023/01/07 13:26:24;;;;;;;;;;;;;;;;;;4904849;29;20112;-73
2023/01/07 13:29:00;;;;;;;2.80;1.58;;;;;;;;;;4903127;29;19927;-71
2023/01/07 13:31:40;;;;;;;2.60;2.40;;;;;;;;;;4898818;29;20052;-71
2023/01/07 13:34:17;;;;;;;2.78;2.30;;;;;;;;;;4899785;29;20056;-71
2023/01/07 13:37:25;;;;;;;2.50;2.30;;;;;;;;;;4901348;29;20466;-71
2023/01/07 13:40:16;;;;;;;2.38;2.10;;;;;;;;;;4903668;29;20044;-71
2023/01/07 13:43:02;;;;;;;2.35;2.15;;;;;;;;;;4909029;29;20070;-71
2023/01/07 13:45:31;;;;;;;1.92;1.83;;;;;;;;;;4902517;29;20052;-71
2023/01/07 13:48:04;;;;;;;2.80;2.42;;;;;;;;;;4928932;28;20133;-71
2023/01/07 13:50:36;;;;;;;2.55;2.35;;;;;;;;;;4958868;28;20047;-73
2023/01/07 13:53:23;;;;;;;2.80;2.30;;;;;;;;;;4959287;28;21068;-71
2023/01/07 13:55:49;;;;;;;2.40;2.17;;;;;;;;;;4974839;28;20067;-71
2023/01/07 13:58:30;;;;;;;2.58;2.33;;;;;;;;;;5038589;28;20461;-71
2023/01/07 14:01:07;;;;;;;3.40;2.50;;;;;;;;;;5022518;28;20964;-71
2023/01/07 14:03:41;;;;;;;2.85;2.47;;;;;;;;;;5021959;28;20037;-71
2023/01/07 14:06:22;;;;;;;5.55;2.22;;;;;;;;;;5021179;28;20048;-71
2023/01/07 14:09:13;;;;;;;3.00;2.70;;;;;;;;;;5021721;28;20061;-72
2023/01/07 14:12:03;;;;;;;2.92;2.63;;;;;;;;;;5022208;28;20152;-72
2023/01/07 14:15:07;;;;;;;3.35;2.38;;;;;;;;;;5021516;28;20469;-72
2023/01/07 14:17:51;;;;;;;2.60;2.40;;;;;;;;;;5012248;28;20052;-74
2023/01/07 14:20:40;;;;;;;4.95;2.60;;;;;;;;;;5021873;28;20041;-72
2023/01/07 14:23:27;;;;;;;4.28;2.30;;;;;;;;;;5048114;28;20042;-72
2023/01/07 14:25:55;;;;;;;3.03;2.53;;;;;;;;;;5019592;28;20045;-72
2023/01/07 14:28:47;;;;;;;2.97;2.58;;;;;;;;;;5020694;28;20045;-72
2023/01/07 14:31:21;;;;;;;4.22;2.10;;;;;;;;;;5049285;28;20498;-72
2023/01/07 14:33:51;;;;;;;2.58;2.38;;;;;;;;;;5036749;28;20068;-72
2023/01/07 14:36:17;;;;;;;4.15;2.70;;;;;;;;;;5022382;28;20053;-73
2023/01/07 14:38:42;;;;;;;2.65;2.40;;;;;;;;;;5036296;28;20052;-73
2023/01/07 14:41:10;;;;;;;3.00;2.80;;;;;;;;;;5021903;28;20060;-72
2023/01/07 14:43:44;;;;;;;2.70;2.50;;;;;;;;;;5021934;28;20049;-72
2023/01/07 14:46:22;;;;;;;2.47;2.25;;;;;;;;;;5018589;28;20049;-73
2023/01/07 14:49:00;;;;;;;4.05;2.40;;;;;;;;;;5020909;28;20536;-73
2023/01/07 14:51:31;;;;;;;3.00;2.35;;;;;;;;;;5014172;28;20050;-72
2023/01/07 14:54:35;;;;;;;3.77;2.77;;;;;;;;;;5017581;28;20168;-74
2023/01/07 14:57:11;;;;;;;3.45;2.60;;;;;;;;;;5007541;28;20041;-71
2023/01/07 15:00:01;;;;;;;3.60;2.40;;;;;;;;;;5033845;28;20079;-71
2023/01/07 15:02:54;;;;;;;2.90;2.70;;;;;;;;;;5018792;28;20045;-71
2023/01/07 15:05:25;;;;;;;2.90;2.70;;;;;;;;;;5041279;28;20052;-71
2023/01/07 15:15:59;;;;;;;3.08;2.78;;;;;;;;;;5019188;28;20084;-71
2023/01/07 15:16:14;;;;;;;2.60;2.40;;;;;;;;;;5021375;28;20077;-72
2023/01/07 15:18:50;;;;;;;3.92;2.80;;;;;;;;;;5019668;28;20512;-71
2023/01/07 15:21:33;;;;;;;2.55;2.35;;;;;;;;;;5019972;28;20053;-71